Time;durP1;ratioP1;P1;durP2;ratioP2;P2;SDS_P1;SDS_P2;PMS_P1;PMS_P2;Temp;Humidity;BMP_temperature;BMP_pressure;BME280_temperature;BME280_humidity;BME280_pressure;Samples;Min_cycle;Max_cycle;Signal;HPM_P1;HPM_P2
2023/02/18 00:02:41;;;;;;;89.03;59.13;;;12.00;92.20;;;;;;5031675;28;20385;-78
2023/02/18 00:05:45;;;;;;;90.78;62.85;;;12.30;92.30;;;;;;5031723;28;20052;-78
2023/02/18 00:08:50;;;;;;;93.60;61.55;;;12.20;92.20;;;;;;5030549;28;20072;-78
2023/02/18 00:11:54;;;;;;;99.47;62.78;;;12.20;92.10;;;;;;5031479;28;20041;-78
2023/02/18 00:14:58;;;;;;;90.03;61.63;;;12.10;92.10;;;;;;5031367;28;20056;-77
2023/02/18 00:18:03;;;;;;;89.22;60.72;;;12.10;92.20;;;;;;5030609;28;20036;-77
2023/02/18 00:21:07;;;;;;;91.82;60.35;;;12.00;92.30;;;;;;5019824;28;20044;-78
2023/02/18 00:24:14;;;;;;;89.35;61.30;;;12.00;92.50;;;;;;5031476;28;20041;-77
2023/02/18 00:27:19;;;;;;;86.15;59.25;;;12.00;92.40;;;;;;5031769;28;20048;-78
2023/02/18 00:30:23;;;;;;;92.13;61.05;;;12.00;92.40;;;;;;5030118;28;20045;-77
2023/02/18 00:33:27;;;;;;;86.22;59.85;;;12.00;92.30;;;;;;5030271;28;20068;-78
2023/02/18 00:36:31;;;;;;;97.15;61.05;;;11.90;92.30;;;;;;5031861;28;20045;-77
2023/02/18 00:39:36;;;;;;;94.80;62.53;;;11.90;92.50;;;;;;5029660;28;20481;-78
2023/02/18 00:42:40;;;;;;;90.47;62.50;;;;;;;;;;5032300;28;20040;-78
2023/02/18 00:45:46;;;;;;;93.72;63.70;;;;;;;;;;5031017;28;20041;-79
2023/02/18 00:48:50;;;;;;;96.22;62.63;;;11.60;93.00;;;;;;5031364;28;20052;-78
2023/02/18 00:51:54;;;;;;;95.15;60.80;;;11.60;92.90;;;;;;5019379;28;20044;-77
2023/02/18 00:54:57;;;;;;;87.75;59.92;;;11.70;92.80;;;;;;5030794;28;20389;-77
2023/02/18 00:58:02;;;;;;;92.70;63.55;;;;;;;;;;5030803;28;20045;-78
2023/02/18 01:01:07;;;;;;;89.40;59.75;;;11.70;92.80;;;;;;5030325;28;20049;-78
2023/02/18 01:04:11;;;;;;;88.30;59.78;;;11.70;92.80;;;;;;5030265;28;20044;-77
2023/02/18 01:07:15;;;;;;;92.78;62.72;;;11.60;92.90;;;;;;5031263;28;20037;-77
2023/02/18 01:10:20;;;;;;;91.68;60.55;;;11.50;93.20;;;;;;5031529;28;20408;-79
2023/02/18 01:13:26;;;;;;;90.97;60.50;;;11.40;93.30;;;;;;5035014;28;20508;-78
2023/02/18 01:16:31;;;;;;;93.03;62.63;;;;;;;;;;5034824;28;20041;-78
2023/02/18 01:19:35;;;;;;;95.82;62.40;;;;;;;;;;5033858;28;20048;-77
2023/02/18 01:22:40;;;;;;;93.90;64.43;;;8.30;92.60;;;;;;5033800;28;20049;-78
2023/02/18 01:25:44;;;;;;;93.30;62.65;;;11.40;93.30;;;;;;5030789;28;20052;-78
2023/02/18 01:28:48;;;;;;;94.80;61.70;;;11.30;93.30;;;;;;5030531;28;20084;-77
2023/02/18 01:31:53;;;;;;;99.38;64.13;;;;;;;;;;5019311;28;20044;-77
2023/02/18 01:34:57;;;;;;;89.57;61.13;;;;;;;;;;5030293;28;20496;-77
2023/02/18 01:38:01;;;;;;;81.35;57.15;;;11.30;93.80;;;;;;5031199;28;20404;-77
2023/02/18 01:41:05;;;;;;;98.82;61.33;;;11.20;93.60;;;;;;5030444;28;20048;-78
2023/02/18 01:44:24;;;;;;;90.65;60.35;;;11.20;93.70;;;;;;5031266;28;20064;-77
2023/02/18 01:47:28;;;;;;;107.45;63.83;;;;;;;;;;5030559;28;20056;-77
2023/02/18 01:50:36;;;;;;;90.57;61.08;;;9.80;93.50;;;;;;5031561;28;20492;-77
2023/02/18 01:53:58;;;;;;;88.07;61.42;;;11.00;93.90;;;;;;5030422;28;20036;-77
2023/02/18 01:57:09;;;;;;;91.63;61.60;;;11.00;93.90;;;;;;5031790;28;20045;-78
2023/02/18 02:00:19;;;;;;;95.90;60.03;;;10.90;94.10;;;;;;5019932;28;20053;-78
2023/02/18 02:03:23;;;;;;;92.60;65.00;;;10.50;94.00;;;;;;5032570;28;20060;-77
2023/02/18 02:06:27;;;;;;;90.82;63.22;;;11.30;94.70;;;;;;5031343;28;20048;-77
2023/02/18 02:09:33;;;;;;;94.47;62.67;;;11.90;95.10;;;;;;5031912;28;20052;-78
2023/02/18 02:13:00;;;;;;;91.32;63.80;;;10.50;94.70;;;;;;5030844;28;20045;-78
2023/02/18 02:16:20;;;;;;;92.45;60.88;;;10.20;94.70;;;;;;5031161;28;20044;-78
2023/02/18 02:19:50;;;;;;;96.70;58.60;;;11.40;95.20;;;;;;5031856;28;20044;-78
2023/02/18 02:23:15;;;;;;;87.13;57.97;;;;;;;;;;5032033;28;20504;-78
2023/02/18 02:26:19;;;;;;;79.15;52.80;;;;;;;;;;5030585;28;20068;-78
2023/02/18 02:29:54;;;;;;;91.80;56.72;;;10.50;94.50;;;;;;5031921;28;20401;-78
2023/02/18 02:33:29;;;;;;;79.65;53.60;;;10.30;94.40;;;;;;5031131;28;20041;-77
2023/02/18 02:36:38;;;;;;;83.22;56.55;;;10.50;94.30;;;;;;5030515;28;20385;-78
2023/02/18 02:39:44;;;;;;;91.78;58.65;;;;;;;;;;5030305;28;20049;-77
2023/02/18 02:42:49;;;;;;;86.80;57.05;;;;;;;;;;5030521;28;20060;-77
2023/02/18 02:46:34;;;;;;;91.88;58.30;;;11.10;94.80;;;;;;5031388;28;20511;-78
2023/02/18 02:49:44;;;;;;;86.40;58.45;;;;;;;;;;5031214;28;20060;-77
2023/02/18 02:52:53;;;;;;;82.85;56.60;;;11.10;95.30;;;;;;5030453;28;20516;-77
2023/02/18 02:55:57;;;;;;;76.38;51.05;;;10.20;95.30;;;;;;5030197;28;20045;-79
2023/02/18 02:59:08;;;;;;;81.10;51.13;;;10.20;95.20;;;;;;5030159;28;20048;-77
2023/02/18 03:02:28;;;;;;;80.78;52.20;;;10.30;94.90;;;;;;5029730;28;20036;-77
2023/02/18 03:06:14;;;;;;;80.80;53.33;;;10.40;95.00;;;;;;5031126;28;20046;-77
2023/02/18 03:09:49;;;;;;;76.60;52.15;;;9.10;94.60;;;;;;5030897;28;20049;-78
2023/02/18 03:13:06;;;;;;;76.93;49.40;;;10.10;95.10;;;;;;5030413;28;20052;-77
2023/02/18 03:16:32;;;;;;;73.75;50.08;;;10.30;95.00;;;;;;5030608;28;20060;-77
2023/02/18 03:19:45;;;;;;;80.30;49.83;;;9.90;95.10;;;;;;5031544;28;20377;-79
2023/02/18 03:22:51;;;;;;;72.40;48.58;;;10.00;95.30;;;;;;5030576;28;20048;-78
2023/02/18 03:25:57;;;;;;;77.82;50.60;;;;;;;;;;5029877;28;20060;-78
2023/02/18 03:29:04;;;;;;;68.30;43.80;;;10.10;95.30;;;;;;5029466;28;20061;-78
2023/02/18 03:32:11;;;;;;;71.45;47.03;;;10.00;94.90;;;;;;5030723;28;20041;-78
2023/02/18 03:35:17;;;;;;;69.63;48.10;;;10.00;95.00;;;;;;5028443;28;20053;-78
2023/02/18 03:38:33;;;;;;;69.40;45.60;;;9.70;95.00;;;;;;5030519;28;20496;-78
2023/02/18 03:41:37;;;;;;;64.03;44.95;;;9.70;95.10;;;;;;5030030;28;20044;-78
2023/02/18 03:44:41;;;;;;;64.05;42.67;;;12.80;96.00;;;;;;5029293;28;20052;-78
2023/02/18 03:47:46;;;;;;;62.35;41.65;;;9.60;94.90;;;;;;5030522;28;20044;-78
2023/02/18 03:50:52;;;;;;;57.58;39.67;;;9.60;95.20;;;;;;5029481;28;20056;-78
2023/02/18 03:53:57;;;;;;;59.95;38.63;;;9.50;95.20;;;;;;5030235;28;20054;-77
2023/02/18 03:57:01;;;;;;;55.17;35.75;;;9.50;95.40;;;;;;5030454;28;20045;-78
2023/02/18 04:00:06;;;;;;;52.08;36.00;;;8.70;95.60;;;;;;5045208;28;20027;-78
2023/02/18 04:03:17;;;;;;;49.28;34.72;;;9.70;95.70;;;;;;5029021;28;20048;-78
2023/02/18 04:06:22;;;;;;;47.47;32.63;;;9.60;95.90;;;;;;5030016;28;20041;-78
2023/02/18 04:09:26;;;;;;;53.28;33.15;;;9.60;95.90;;;;;;5029710;28;20056;-78
2023/02/18 04:12:30;;;;;;;44.42;31.73;;;9.50;96.20;;;;;;5038580;28;20044;-76
2023/02/18 04:15:34;;;;;;;44.72;29.70;;;9.50;96.10;;;;;;5045247;28;20048;-77
2023/02/18 04:18:39;;;;;;;41.33;26.77;;;9.50;96.20;;;;;;5038191;28;20041;-78
2023/02/18 04:21:43;;;;;;;41.67;27.42;;;;;;;;;;5032516;28;20045;-78
2023/02/18 04:24:47;;;;;;;44.38;27.30;;;;;;;;;;5033538;28;20373;-78
2023/02/18 04:27:51;;;;;;;37.83;25.90;;;9.70;96.00;;;;;;5041787;28;20039;-78
2023/02/18 04:30:56;;;;;;;41.67;25.90;;;;;;;;;;5045769;28;20067;-78
2023/02/18 04:34:00;;;;;;;38.70;25.95;;;9.90;95.80;;;;;;5045832;28;20036;-78
2023/02/18 04:37:04;;;;;;;37.00;24.60;;;9.80;95.70;;;;;;5045110;28;20032;-77
2023/02/18 04:40:09;;;;;;;39.53;24.92;;;9.90;95.80;;;;;;5045145;28;20040;-77
2023/02/18 04:43:13;;;;;;;36.38;25.00;;;10.10;95.70;;;;;;5043926;28;20039;-78
2023/02/18 04:46:17;;;;;;;47.20;26.23;;;10.90;96.10;;;;;;5046100;28;20447;-78
2023/02/18 04:49:21;;;;;;;44.65;25.95;;;7.50;95.40;;;;;;5048120;28;20511;-78
2023/02/18 04:52:26;;;;;;;44.58;25.83;;;;;;;;;;5048488;28;20028;-77
2023/02/18 04:55:30;;;;;;;50.55;26.52;;;10.30;95.70;;;;;;5047613;28;20036;-77
2023/02/18 04:58:34;;;;;;;48.42;25.90;;;10.00;95.80;;;;;;5048222;28;20056;-78
2023/02/18 05:01:38;;;;;;;43.00;25.95;;;9.20;95.90;;;;;;5048502;28;20048;-77
2023/02/18 05:04:42;;;;;;;47.78;25.05;;;10.20;96.00;;;;;;5048273;28;20040;-78
2023/02/18 05:07:47;;;;;;;43.08;27.90;;;;;;;;;;5046438;28;20052;-78
2023/02/18 05:10:51;;;;;;;40.15;26.48;;;8.80;95.90;;;;;;5047125;28;20048;-78
2023/02/18 05:13:55;;;;;;;45.90;30.75;;;7.50;95.50;;;;;;5046461;28;20048;-78
2023/02/18 05:16:59;;;;;;;44.72;30.27;;;9.10;96.00;;;;;;5040175;28;20052;-77
2023/02/18 05:20:03;;;;;;;52.33;32.15;;;;;;;;;;5032994;28;20045;-77
2023/02/18 05:23:08;;;;;;;50.42;33.67;;;;;;;;;;5032889;28;20041;-77
2023/02/18 05:26:11;;;;;;;52.20;34.33;;;10.30;95.80;;;;;;5032211;28;20048;-77
2023/02/18 05:29:15;;;;;;;52.92;35.97;;;10.30;95.60;;;;;;5032171;28;20057;-77
2023/02/18 05:32:20;;;;;;;55.90;37.35;;;;;;;;;;5032738;28;20500;-77
2023/02/18 05:35:24;;;;;;;57.97;38.97;;;;;;;;;;5032627;28;20389;-79
2023/02/18 05:38:28;;;;;;;63.10;42.78;;;10.60;95.50;;;;;;5033239;28;20061;-77
2023/02/18 05:41:33;;;;;;;69.53;43.03;;;;;;;;;;5033041;28;20044;-79
2023/02/18 05:44:39;;;;;;;68.90;45.28;;;;;;;;;;5033775;28;20155;-77
2023/02/18 05:47:43;;;;;;;71.22;45.38;;;10.60;95.50;;;;;;5032393;28;20049;-78
2023/02/18 05:50:48;;;;;;;72.15;44.72;;;10.60;95.60;;;;;;5034290;28;20044;-79
2023/02/18 05:53:52;;;;;;;68.75;47.28;;;;;;;;;;5037199;28;20045;-79
2023/02/18 05:56:56;;;;;;;67.70;44.80;;;10.50;95.40;;;;;;5037261;28;20053;-78
2023/02/18 06:00:00;;;;;;;79.90;47.50;;;9.90;95.40;;;;;;5037040;28;20053;-78
2023/02/18 06:03:04;;;;;;;74.65;48.88;;;;;;;;;;5035376;28;20033;-77
2023/02/18 06:06:09;;;;;;;68.43;47.88;;;10.30;95.90;;;;;;5032539;28;20393;-77
2023/02/18 06:09:13;;;;;;;69.90;46.42;;;;;;;;;;5037421;28;20053;-78
2023/02/18 06:12:18;;;;;;;66.47;44.65;;;11.00;96.30;;;;;;5037403;28;20044;-78
2023/02/18 06:15:22;;;;;;;68.20;46.28;;;11.80;96.50;;;;;;5035900;28;20519;-79
2023/02/18 06:18:27;;;;;;;66.78;45.42;;;;;;;;;;5035929;28;20049;-77
2023/02/18 06:21:32;;;;;;;65.78;45.70;;;;;;;;;;5035834;28;20036;-77
2023/02/18 06:24:37;;;;;;;76.55;46.40;;;;;;;;;;5023887;28;20044;-77
2023/02/18 06:27:41;;;;;;;67.05;44.60;;;10.60;96.50;;;;;;5036852;28;20044;-78
2023/02/18 06:30:45;;;;;;;69.93;44.38;;;10.60;96.10;;;;;;5037844;28;20045;-78
2023/02/18 06:33:50;;;;;;;66.05;43.75;;;10.80;95.70;;;;;;5038128;28;20183;-77
2023/02/18 06:36:54;;;;;;;72.80;45.92;;;10.80;95.80;;;;;;5041010;28;20514;-78
2023/02/18 06:39:59;;;;;;;76.05;45.17;;;;;;;;;;5038126;28;20060;-78
2023/02/18 06:43:03;;;;;;;74.82;44.72;;;9.80;95.80;;;;;;5035897;28;20052;-78
2023/02/18 06:46:10;;;;;;;113.05;71.28;;;11.00;96.00;;;;;;5035794;28;20032;-77
2023/02/18 06:49:14;;;;;;;97.47;59.65;;;10.90;96.00;;;;;;5038789;28;20413;-79
2023/02/18 06:52:18;;;;;;;157.88;102.28;;;11.10;95.90;;;;;;5036479;28;20045;-79
2023/02/18 06:55:23;;;;;;;142.10;95.10;;;11.10;95.70;;;;;;5036221;28;20404;-78
2023/02/18 06:58:27;;;;;;;116.60;76.28;;;11.00;95.70;;;;;;5034852;28;20040;-77
2023/02/18 07:01:31;;;;;;;112.97;67.75;;;11.00;95.70;;;;;;5036427;28;20511;-78
2023/02/18 07:04:35;;;;;;;95.10;61.28;;;11.70;96.10;;;;;;5035092;28;20045;-78
2023/02/18 07:07:39;;;;;;;101.78;59.03;;;11.00;96.00;;;;;;5036085;28;20044;-77
2023/02/18 07:10:43;;;;;;;84.22;53.55;;;;;;;;;;5039222;28;20060;-77
2023/02/18 07:13:47;;;;;;;80.88;53.30;;;11.00;96.30;;;;;;5035331;28;20061;-77
2023/02/18 07:16:52;;;;;;;84.72;51.90;;;10.20;96.20;;;;;;5035078;28;20389;-78
2023/02/18 07:19:56;;;;;;;73.97;46.97;;;;;;;;;;5032186;28;20044;-78
2023/02/18 07:23:04;;;;;;;77.68;49.20;;;;;;;;;;5035810;28;20056;-78
2023/02/18 07:26:11;;;;;;;83.43;51.30;;;11.10;96.40;;;;;;5035303;28;20044;-77
2023/02/18 07:29:15;;;;;;;80.82;51.03;;;11.00;96.10;;;;;;5036915;28;20063;-78
2023/02/18 07:32:20;;;;;;;101.25;53.63;;;11.50;96.10;;;;;;5033440;28;20041;-76
2023/02/18 07:35:24;;;;;;;76.50;45.85;;;11.50;95.80;;;;;;5036141;28;20049;-78
2023/02/18 07:38:28;;;;;;;73.97;43.95;;;11.70;95.90;;;;;;5035277;28;20037;-77
2023/02/18 07:41:32;;;;;;;87.50;47.40;;;11.70;95.90;;;;;;5032285;28;20045;-77
2023/02/18 07:44:37;;;;;;;91.13;46.60;;;12.30;96.20;;;;;;5033887;28;20052;-77
2023/02/18 07:47:44;;;;;;;99.28;48.88;;;11.30;95.90;;;;;;5036610;28;20041;-77
2023/02/18 07:50:48;;;;;;;94.38;48.58;;;11.90;96.10;;;;;;5037858;28;20119;-77
2023/02/18 07:53:53;;;;;;;74.60;43.75;;;;;;;;;;5036733;28;20037;-76
2023/02/18 07:56:57;;;;;;;75.93;42.60;;;;;;;;;;5040063;28;20036;-78
2023/02/18 08:00:02;;;;;;;59.70;34.42;;;;;;;;;;5039930;28;20032;-78
2023/02/18 08:03:27;;;;;;;52.72;30.95;;;12.40;95.60;;;;;;5042296;28;20043;-81
2023/02/18 08:06:37;;;;;;;44.67;27.65;;;11.90;95.10;;;;;;5037180;28;20044;-77
2023/02/18 08:09:42;;;;;;;34.03;25.73;;;12.60;95.20;;;;;;5030648;28;20052;-76
2023/02/18 08:12:46;;;;;;;37.65;24.98;;;12.10;94.70;;;;;;5034562;28;20044;-77
2023/02/18 08:15:54;;;;;;;36.30;23.83;;;12.90;94.80;;;;;;5033109;28;20060;-76
2023/02/18 08:18:58;;;;;;;33.25;22.45;;;13.10;94.70;;;;;;5033253;28;20055;-81
2023/02/18 08:22:02;;;;;;;38.63;23.13;;;;;;;;;;5034661;28;20052;-80
2023/02/18 08:25:06;;;;;;;37.75;23.02;;;13.40;94.20;;;;;;5039296;28;20036;-81
2023/02/18 08:28:19;;;;;;;37.50;23.58;;;13.40;94.10;;;;;;5040518;28;20044;-82
2023/02/18 08:31:28;;;;;;;38.95;25.83;;;13.50;94.00;;;;;;5042158;28;20063;-80
2023/02/18 08:34:32;;;;;;;44.20;26.20;;;13.50;93.70;;;;;;5042073;28;20056;-80
2023/02/18 08:37:39;;;;;;;40.40;25.73;;;13.70;93.60;;;;;;5041886;28;20388;-80
2023/02/18 08:40:43;;;;;;;37.83;24.42;;;14.10;93.50;;;;;;5043623;28;20040;-81
2023/02/18 08:43:48;;;;;;;31.30;23.13;;;13.80;93.30;;;;;;5035514;28;20037;-81
2023/02/18 08:46:53;;;;;;;33.22;21.80;;;13.80;93.30;;;;;;5040985;28;20075;-82
2023/02/18 08:49:57;;;;;;;39.08;23.08;;;13.90;93.20;;;;;;5040489;28;20057;-81
2023/02/18 08:53:02;;;;;;;36.25;23.98;;;14.10;92.80;;;;;;5042959;28;20055;-81
2023/02/18 08:56:08;;;;;;;39.70;24.67;;;14.10;93.00;;;;;;5041564;28;20053;-82
2023/02/18 08:59:12;;;;;;;40.28;25.42;;;14.20;92.90;;;;;;5039580;28;20041;-81
2023/02/18 09:02:16;;;;;;;34.33;23.55;;;14.30;92.60;;;;;;5040261;28;20056;-80
2023/02/18 09:05:21;;;;;;;36.47;23.70;;;14.30;92.50;;;;;;5038497;28;20057;-80
2023/02/18 09:08:25;;;;;;;40.72;23.58;;;14.50;92.30;;;;;;5041124;28;20056;-82
2023/02/18 09:11:29;;;;;;;33.28;22.65;;;14.60;91.80;;;;;;5040626;28;20040;-82
2023/02/18 09:14:33;;;;;;;34.80;26.13;;;14.60;92.00;;;;;;5041842;28;20055;-81
2023/02/18 09:17:37;;;;;;;54.45;27.27;;;14.70;91.90;;;;;;5037907;28;20033;-81
2023/02/18 09:20:51;;;;;;;40.00;23.33;;;14.80;91.10;;;;;;5037848;28;20036;-82
2023/02/18 09:23:57;;;;;;;31.40;21.58;;;14.80;91.30;;;;;;5037073;28;20033;-80
2023/02/18 09:27:02;;;;;;;33.45;23.10;;;14.70;91.30;;;;;;5037422;28;20041;-80
2023/02/18 09:30:09;;;;;;;24.33;18.63;;;14.80;91.20;;;;;;5038935;28;20057;-81
2023/02/18 09:33:14;;;;;;;25.45;18.77;;;14.70;91.10;;;;;;5013614;28;20052;-81
2023/02/18 09:36:19;;;;;;;24.70;16.85;;;14.80;90.60;;;;;;5041560;28;20389;-82
2023/02/18 09:39:23;;;;;;;23.60;17.15;;;14.80;90.80;;;;;;5037251;28;20040;-83
2023/02/18 09:42:33;;;;;;;24.42;17.17;;;14.80;90.50;;;;;;5042270;28;20045;-81
2023/02/18 09:45:38;;;;;;;20.00;15.40;;;14.80;90.30;;;;;;5043223;28;20044;-81
2023/02/18 09:48:45;;;;;;;24.48;16.20;;;14.80;90.40;;;;;;5036708;28;20040;-81
2023/02/18 09:51:50;;;;;;;23.92;17.17;;;14.80;89.80;;;;;;5037665;28;20500;-82
2023/02/18 09:54:54;;;;;;;24.58;16.08;;;14.90;89.30;;;;;;5037588;28;20041;-82
2023/02/18 09:58:03;;;;;;;28.38;17.05;;;15.00;89.80;;;;;;5039809;28;20044;-84
2023/02/18 10:01:36;;;;;;;22.98;15.88;;;15.20;89.50;;;;;;5042710;28;20512;-81
2023/02/18 10:04:47;;;;;;;16.17;10.10;;;15.30;88.90;;;;;;5042506;28;20052;-82
2023/02/18 10:07:57;;;;;;;16.13;9.37;;;15.30;86.40;;;;;;5044046;28;20114;-81
2023/02/18 10:11:01;;;;;;;13.48;9.77;;;15.40;86.20;;;;;;5045422;28;20063;-78
2023/02/18 10:14:13;;;;;;;16.33;9.90;;;15.50;86.10;;;;;;5042046;28;20047;-82
2023/02/18 10:17:31;;;;;;;14.60;8.68;;;15.60;85.50;;;;;;5044006;28;20043;-81
2023/02/18 10:20:35;;;;;;;10.50;8.07;;;15.70;84.90;;;;;;5036186;28;20055;-80
2023/02/18 10:23:45;;;;;;;10.65;6.85;;;15.80;84.50;;;;;;5041157;28;20056;-82
2023/02/18 10:26:50;;;;;;;12.65;7.35;;;15.90;83.60;;;;;;5043990;28;20448;-81
2023/02/18 10:30:11;;;;;;;11.20;7.35;;;16.00;83.40;;;;;;5044614;28;20060;-80
2023/02/18 10:33:22;;;;;;;9.52;6.90;;;15.80;82.40;;;;;;5031370;28;20028;-81
2023/02/18 10:36:30;;;;;;;9.50;7.50;;;15.70;82.90;;;;;;5044507;28;20044;-81
2023/02/18 10:39:53;;;;;;;15.07;8.07;;;15.70;82.90;;;;;;5042934;28;20044;-82
2023/02/18 10:43:19;;;;;;;9.45;7.28;;;15.80;83.00;;;;;;5044205;28;20032;-80
2023/02/18 10:46:36;;;;;;;19.67;10.90;;;16.00;82.90;;;;;;5046169;28;20037;-81
2023/02/18 10:50:00;;;;;;;17.05;8.80;;;16.30;80.70;;;;;;5043105;28;20053;-82
2023/02/18 10:53:17;;;;;;;8.85;7.47;;;16.60;80.40;;;;;;5040896;28;20048;-82
2023/02/18 10:57:03;;;;;;;10.35;6.55;;;16.60;80.00;;;;;;5040496;28;20037;-82
2023/02/18 11:00:25;;;;;;;10.30;6.55;;;16.40;79.90;;;;;;5048894;28;20040;-81
2023/02/18 11:04:00;;;;;;;13.18;8.80;;;16.30;80.50;;;;;;5040834;28;20052;-81
2023/02/18 11:07:11;;;;;;;16.35;7.28;;;16.20;80.80;;;;;;5042226;28;20503;-81
2023/02/18 11:10:30;;;;;;;10.13;6.00;;;16.30;81.10;;;;;;5039471;28;20060;-82
2023/02/18 11:13:33;;;;;;;12.02;6.32;;;16.40;80.80;;;;;;5039452;28;20049;-81
2023/02/18 11:16:44;;;;;;;9.43;6.05;;;16.40;80.70;;;;;;5039495;28;20052;-82
2023/02/18 11:20:00;;;;;;;8.30;6.15;;;16.30;79.50;;;;;;5039509;28;20404;-82
2023/02/18 11:23:14;;;;;;;8.80;5.72;;;16.20;80.10;;;;;;5040168;28;20051;-82
2023/02/18 11:26:29;;;;;;;8.18;5.38;;;16.20;80.60;;;;;;5043870;28;20041;-80
2023/02/18 11:29:34;;;;;;;7.97;6.05;;;16.10;80.60;;;;;;5042983;28;20048;-81
2023/02/18 11:32:43;;;;;;;10.10;6.50;;;16.10;81.30;;;;;;5044281;28;20031;-81
2023/02/18 11:35:56;;;;;;;10.90;7.20;;;16.20;81.60;;;;;;5043031;28;20051;-81
2023/02/18 11:39:23;;;;;;;9.15;7.05;;;16.20;81.70;;;;;;5041778;28;20044;-80
2023/02/18 11:42:28;;;;;;;10.23;6.50;;;16.20;81.70;;;;;;5040932;28;20107;-82
2023/02/18 11:45:34;;;;;;;14.13;8.10;;;16.20;81.70;;;;;;5041597;28;20055;-83
2023/02/18 11:48:41;;;;;;;14.25;8.85;;;16.10;81.10;;;;;;5041563;28;20533;-82
2023/02/18 11:51:51;;;;;;;13.15;7.85;;;16.10;81.70;;;;;;5040836;28;20055;-81
2023/02/18 11:55:16;;;;;;;9.38;6.38;;;16.00;81.50;;;;;;5045222;28;20503;-82
2023/02/18 11:58:22;;;;;;;15.48;9.75;;;16.10;81.80;;;;;;5043006;28;20047;-82
2023/02/18 12:01:50;;;;;;;22.60;11.82;;;16.10;81.10;;;;;;5043047;28;20052;-80
2023/02/18 12:05:15;;;;;;;13.88;9.45;;;16.10;81.00;;;;;;5041295;28;20053;-82
2023/02/18 12:08:26;;;;;;;12.02;7.95;;;16.10;81.20;;;;;;5039789;28;20056;-82
2023/02/18 12:11:41;;;;;;;11.25;5.00;;;16.10;81.20;;;;;;5043639;28;20350;-80
2023/02/18 12:14:44;;;;;;;6.60;4.80;;;16.00;80.70;;;;;;5039387;28;20052;-82
2023/02/18 12:18:07;;;;;;;6.90;5.18;;;16.00;80.90;;;;;;5043317;28;20048;-82
2023/02/18 12:21:23;;;;;;;7.00;4.90;;;16.00;81.10;;;;;;5042280;28;20051;-81
2023/02/18 12:24:56;;;;;;;12.70;5.80;;;16.00;81.30;;;;;;5041415;28;20040;-80
2023/02/18 12:28:00;;;;;;;10.02;5.97;;;15.90;81.00;;;;;;5040442;28;20049;-80
2023/02/18 12:31:07;;;;;;;10.07;6.18;;;15.90;81.50;;;;;;5040479;28;20041;-81
2023/02/18 12:34:39;;;;;;;8.80;5.47;;;15.90;80.90;;;;;;5041951;28;20056;-82
2023/02/18 12:38:11;;;;;;;8.18;5.50;;;16.00;81.40;;;;;;5044581;28;20521;-82
2023/02/18 12:41:27;;;;;;;12.90;6.05;;;16.20;81.10;;;;;;5041102;28;20044;-81
2023/02/18 12:44:51;;;;;;;7.72;5.30;;;16.30;80.30;;;;;;5042113;28;20044;-82
2023/02/18 12:48:15;;;;;;;10.18;5.82;;;16.30;80.00;;;;;;5040973;28;20029;-81
2023/02/18 12:51:41;;;;;;;8.50;4.93;;;16.10;80.10;;;;;;5041276;28;20043;-82
2023/02/18 12:55:29;;;;;;;8.90;5.50;;;16.10;80.40;;;;;;5041210;28;20139;-80
2023/02/18 12:59:06;;;;;;;7.22;6.03;;;16.00;80.40;;;;;;5040178;28;20047;-82
2023/02/18 13:02:16;;;;;;;10.70;6.38;;;16.00;80.70;;;;;;5042111;28;20044;-81
2023/02/18 13:05:39;;;;;;;5.88;4.80;;;15.90;80.90;;;;;;5040026;28;20060;-81
2023/02/18 13:09:13;;;;;;;9.10;6.53;;;15.90;81.00;;;;;;5042940;28;20068;-82
2023/02/18 13:12:25;;;;;;;13.02;5.70;;;16.00;81.30;;;;;;5044945;28;20033;-80
2023/02/18 13:15:40;;;;;;;10.50;5.32;;;16.00;81.60;;;;;;5042592;28;20057;-81
2023/02/18 13:19:12;;;;;;;5.28;4.68;;;16.00;80.80;;;;;;5045815;28;20040;-81
2023/02/18 13:22:19;;;;;;;9.35;4.95;;;16.00;80.70;;;;;;5045512;28;20031;-81
2023/02/18 13:25:24;;;;;;;11.20;5.50;;;16.00;81.10;;;;;;5045074;28;20525;-82
2023/02/18 13:28:52;;;;;;;7.35;4.88;;;16.10;80.90;;;;;;5045556;28;20040;-81
2023/02/18 13:32:05;;;;;;;8.48;4.70;;;16.10;81.00;;;;;;5051657;28;20025;-81
2023/02/18 13:35:28;;;;;;;7.28;5.30;;;16.10;81.30;;;;;;5048182;28;20034;-81
2023/02/18 13:38:59;;;;;;;7.95;4.80;;;16.10;81.40;;;;;;5044598;28;20036;-80
2023/02/18 13:42:15;;;;;;;11.15;5.78;;;16.10;81.30;;;;;;5045338;28;20388;-82
2023/02/18 13:45:30;;;;;;;9.55;6.40;;;16.20;81.30;;;;;;5043087;28;20056;-82
2023/02/18 13:48:52;;;;;;;14.60;5.45;;;16.20;81.40;;;;;;5041190;28;20041;-82
2023/02/18 13:52:00;;;;;;;7.72;5.43;;;16.10;81.10;;;;;;5042172;28;20048;-80
2023/02/18 13:55:23;;;;;;;9.70;5.30;;;16.10;81.50;;;;;;5044749;28;20047;-81
2023/02/18 13:58:46;;;;;;;8.27;5.40;;;16.00;81.80;;;;;;5043852;28;20043;-81
2023/02/18 14:01:53;;;;;;;9.80;6.90;;;16.00;82.00;;;;;;5040450;28;20045;-80
2023/02/18 14:05:40;;;;;;;10.15;6.13;;;16.00;82.40;;;;;;5043605;28;20396;-81
2023/02/18 14:08:48;;;;;;;10.40;6.18;;;16.00;82.80;;;;;;5040896;28;20031;-82
2023/02/18 14:12:25;;;;;;;8.20;5.18;;;16.10;82.80;;;;;;5029041;28;20048;-82
2023/02/18 14:15:29;;;;;;;14.27;5.45;;;16.00;82.60;;;;;;5042552;28;20056;-82
2023/02/18 14:18:42;;;;;;;9.23;5.68;;;16.00;83.00;;;;;;5041868;28;20048;-82
2023/02/18 14:21:50;;;;;;;12.98;5.30;;;15.90;82.90;;;;;;5042709;28;20030;-81
2023/02/18 14:25:12;;;;;;;9.02;5.85;;;15.90;83.60;;;;;;5044659;28;20530;-81
2023/02/18 14:28:40;;;;;;;12.73;5.88;;;15.90;84.40;;;;;;5044327;28;20043;-80
2023/02/18 14:31:55;;;;;;;9.50;5.05;;;15.90;84.80;;;;;;5044942;28;20044;-81
2023/02/18 14:35:23;;;;;;;13.30;6.68;;;15.90;85.20;;;;;;5041185;28;20037;-81
2023/02/18 14:38:55;;;;;;;8.80;5.68;;;15.90;85.30;;;;;;5041030;28;20044;-81
2023/02/18 14:42:37;;;;;;;10.45;6.68;;;15.90;86.30;;;;;;5041487;28;20051;-81
2023/02/18 14:45:46;;;;;;;15.70;6.75;;;15.80;85.30;;;;;;5042795;28;20048;-80
2023/02/18 14:48:51;;;;;;;8.43;5.85;;;15.70;85.50;;;;;;5039676;28;20044;-81
2023/02/18 14:51:57;;;;;;;15.77;7.50;;;15.70;85.80;;;;;;5030102;28;20052;-82
2023/02/18 14:55:07;;;;;;;6.30;5.38;;;15.70;85.60;;;;;;5040709;28;20075;-82
2023/02/18 14:58:42;;;;;;;6.55;4.88;;;15.60;85.20;;;;;;5016251;28;20060;-82
2023/02/18 15:01:48;;;;;;;11.43;6.15;;;15.60;84.70;;;;;;5042362;28;20388;-82
2023/02/18 15:04:53;;;;;;;15.27;8.85;;;15.60;86.10;;;;;;5043296;28;20031;-83
2023/02/18 15:07:59;;;;;;;20.77;10.80;;;15.70;87.80;;;;;;5041709;28;20048;-81
2023/02/18 15:11:06;;;;;;;21.05;10.80;;;15.60;89.20;;;;;;5043838;28;20052;-82
2023/02/18 15:14:20;;;;;;;16.33;9.52;;;15.60;89.80;;;;;;5040867;28;20060;-81
2023/02/18 15:17:27;;;;;;;12.57;9.25;;;15.50;89.90;;;;;;5041287;28;20506;-82
2023/02/18 15:20:33;;;;;;;16.23;9.90;;;15.50;90.20;;;;;;5042371;28;20048;-82
2023/02/18 15:23:40;;;;;;;16.27;10.13;;;15.50;90.50;;;;;;5029908;28;20040;-82
2023/02/18 15:26:49;;;;;;;8.60;6.78;;;15.50;90.50;;;;;;5039455;28;20041;-82
2023/02/18 15:30:18;;;;;;;20.23;7.32;;;15.40;89.50;;;;;;5039212;28;20072;-82
2023/02/18 15:33:22;;;;;;;14.90;8.30;;;15.40;88.40;;;;;;5041597;28;20052;-82
2023/02/18 15:36:31;;;;;;;13.77;7.03;;;15.30;88.00;;;;;;5040407;28;20495;-81
2023/02/18 15:39:37;;;;;;;12.75;8.07;;;15.30;87.40;;;;;;5040306;28;20040;-81
2023/02/18 15:42:44;;;;;;;20.40;10.38;;;15.30;89.30;;;;;;5040586;28;20041;-81
2023/02/18 15:45:51;;;;;;;13.27;8.95;;;15.30;90.60;;;;;;5042707;28;20040;-81
2023/02/18 15:48:59;;;;;;;14.88;8.48;;;15.20;90.70;;;;;;5028927;28;20503;-82
2023/02/18 15:52:05;;;;;;;12.38;8.40;;;15.20;91.00;;;;;;5041284;28;20055;-82
2023/02/18 15:55:33;;;;;;;14.35;9.90;;;15.10;91.10;;;;;;5040630;28;20036;-82
2023/02/18 15:58:37;;;;;;;16.48;10.05;;;15.00;91.20;;;;;;5042838;28;20040;-81
2023/02/18 16:01:42;;;;;;;16.17;10.20;;;15.00;91.50;;;;;;5039902;28;20049;-81
2023/02/18 16:04:59;;;;;;;19.48;9.52;;;14.90;91.40;;;;;;5039455;28;20044;-81
2023/02/18 16:08:15;;;;;;;14.40;10.32;;;14.90;91.60;;;;;;5038650;28;20057;-81
2023/02/18 16:11:26;;;;;;;18.30;10.13;;;14.90;91.80;;;;;;5041168;28;20057;-81
2023/02/18 16:14:49;;;;;;;19.38;11.00;;;14.90;91.70;;;;;;5037745;28;20049;-81
2023/02/18 16:17:54;;;;;;;16.17;12.60;;;14.90;91.70;;;;;;5038593;28;20511;-81
2023/02/18 16:21:03;;;;;;;16.70;11.55;;;14.90;92.00;;;;;;5038088;28;20045;-80
2023/02/18 16:24:28;;;;;;;15.98;12.05;;;14.80;92.00;;;;;;5035316;28;20049;-81
2023/02/18 16:27:37;;;;;;;16.20;10.85;;;14.80;92.20;;;;;;5034809;28;20099;-82
2023/02/18 16:30:42;;;;;;;16.15;10.80;;;14.70;92.20;;;;;;5036451;28;20061;-82